createdAt,value
2023-05-25T00:02:16.636Z,99705.22
2023-05-25T00:04:48.509Z,99696.00
2023-05-25T00:07:16.343Z,99703.72
2023-05-25T00:09:46.461Z,99703.63
2023-05-25T00:12:15.190Z,99695.97
2023-05-25T00:14:42.814Z,99702.31
2023-05-25T00:17:11.314Z,99701.63
2023-05-25T00:19:42.528Z,99703.50
2023-05-25T00:22:10.487Z,99699.13
2023-05-25T00:24:38.754Z,99705.47
2023-05-25T00:27:08.041Z,99706.94
2023-05-25T00:29:36.471Z,99702.06
2023-05-25T00:32:04.767Z,99702.94
2023-05-25T00:34:32.482Z,99699.56
2023-05-25T00:37:00.160Z,99695.22
2023-05-25T00:39:28.051Z,99695.53
2023-05-25T00:41:56.104Z,99691.72
2023-05-25T00:44:25.141Z,99697.50
2023-05-25T00:46:53.542Z,99692.91
2023-05-25T00:49:23.036Z,99692.88
2023-05-25T00:51:52.984Z,99648.63
2023-05-25T00:54:20.787Z,99680.50
2023-05-25T00:56:52.401Z,99679.00
2023-05-25T00:59:27.937Z,99681.75
2023-05-25T01:01:56.725Z,99673.97
2023-05-25T01:04:24.638Z,99680.94
2023-05-25T01:06:53.455Z,99688.69
2023-05-25T01:09:22.894Z,99687.97
2023-05-25T01:11:51.600Z,99687.84
2023-05-25T01:14:20.951Z,99688.78
2023-05-25T01:16:51.817Z,99690.59
2023-05-25T01:19:19.594Z,99694.97
2023-05-25T01:21:57.282Z,99691.59
2023-05-25T01:24:32.271Z,99696.75
2023-05-25T01:27:05.131Z,99691.59
2023-05-25T01:29:35.052Z,99692.94
2023-05-25T01:32:04.103Z,99684.84
2023-05-25T01:34:32.559Z,99694.34
2023-05-25T01:37:01.777Z,99691.22
2023-05-25T01:39:29.429Z,99692.81
2023-05-25T01:41:57.050Z,99684.84
2023-05-25T01:44:25.036Z,99702.16
2023-05-25T01:46:57.070Z,99691.63
2023-05-25T01:49:28.698Z,99687.47
2023-05-25T01:52:05.342Z,99689.00
2023-05-25T01:54:39.212Z,99694.31
2023-05-25T01:57:09.013Z,99693.50
2023-05-25T01:59:37.861Z,99699.66
2023-05-25T02:02:06.732Z,99695.22
2023-05-25T02:04:34.865Z,99704.13
2023-05-25T02:07:04.723Z,99701.47
2023-05-25T02:09:32.296Z,99714.59
2023-05-25T02:12:00.058Z,99700.53
2023-05-25T02:14:27.804Z,99693.72
2023-05-25T02:16:55.451Z,99706.16
2023-05-25T02:19:23.156Z,99703.53
2023-05-25T02:21:50.834Z,99709.56
2023-05-25T02:24:19.792Z,99697.59
2023-05-25T02:26:47.392Z,99702.78
2023-05-25T02:29:14.959Z,99702.88
2023-05-25T02:31:42.564Z,99696.81
2023-05-25T02:34:11.724Z,99699.56
2023-05-25T02:36:39.415Z,99680.38
2023-05-25T02:39:07.097Z,99696.72
2023-05-25T02:41:36.148Z,99690.56
2023-05-25T02:44:03.767Z,99695.91
2023-05-25T02:46:31.675Z,99695.16
2023-05-25T02:48:59.957Z,99695.94
2023-05-25T02:51:27.810Z,99700.16
2023-05-25T02:53:55.534Z,99692.19
2023-05-25T02:56:23.356Z,99695.84
2023-05-25T02:58:52.954Z,99693.19
2023-05-25T03:01:20.749Z,99698.31
2023-05-25T03:03:52.270Z,99703.91
2023-05-25T03:06:21.435Z,99696.16
2023-05-25T03:08:49.072Z,99694.22
2023-05-25T03:11:16.707Z,99691.88
2023-05-25T03:13:44.306Z,99690.00
2023-05-25T03:16:13.303Z,99698.81
2023-05-25T03:18:41.020Z,99702.22
2023-05-25T03:21:08.646Z,99707.56
2023-05-25T03:23:36.330Z,99709.28
2023-05-25T03:26:03.933Z,99698.88
2023-05-25T03:28:31.552Z,99711.81
2023-05-25T03:30:59.162Z,99709.22
2023-05-25T03:33:28.183Z,99710.59
2023-05-25T03:35:55.791Z,99713.09
2023-05-25T03:38:23.517Z,99705.19
2023-05-25T03:40:51.133Z,99708.44
2023-05-25T03:43:18.792Z,99714.38
2023-05-25T03:45:46.578Z,99700.25
2023-05-25T03:48:14.311Z,99701.00
2023-05-25T03:50:43.291Z,99713.13
2023-05-25T03:53:11.198Z,99722.66
2023-05-25T03:55:38.817Z,99726.84
2023-05-25T03:58:06.467Z,99721.41
2023-05-25T04:00:34.087Z,99720.38
2023-05-25T04:03:01.795Z,99718.88
2023-05-25T04:05:29.623Z,99729.13
2023-05-25T04:07:59.225Z,99731.50
2023-05-25T04:10:26.848Z,99732.38
2023-05-25T04:12:56.597Z,99724.88
2023-05-25T04:15:24.942Z,99728.97
2023-05-25T04:17:52.583Z,99728.19
2023-05-25T04:20:20.445Z,99741.16
2023-05-25T04:22:48.094Z,99739.22
2023-05-25T04:25:19.822Z,99738.31
2023-05-25T04:27:47.685Z,99748.06
2023-05-25T04:30:15.739Z,99743.03
2023-05-25T04:32:45.720Z,99715.16
2023-05-25T04:35:14.562Z,99755.78
2023-05-25T04:37:42.400Z,99753.22
2023-05-25T04:40:11.781Z,99766.13
2023-05-25T04:42:41.581Z,99767.63
2023-05-25T04:45:11.121Z,99774.63
2023-05-25T04:47:41.010Z,99778.78
2023-05-25T04:50:10.252Z,99768.72
2023-05-25T04:52:37.882Z,99771.34
2023-05-25T04:55:06.070Z,99774.22
2023-05-25T04:57:33.784Z,99777.31
2023-05-25T05:00:03.163Z,99784.66
2023-05-25T05:02:30.827Z,99763.56
2023-05-25T05:04:58.480Z,99778.03
2023-05-25T05:07:26.161Z,99785.78
2023-05-25T05:09:53.857Z,99791.25
2023-05-25T05:12:21.683Z,99792.16
2023-05-25T05:14:49.853Z,99794.22
2023-05-25T05:17:19.109Z,99800.41
2023-05-25T05:19:46.754Z,99806.25
2023-05-25T05:22:15.950Z,99799.06
2023-05-25T05:24:43.707Z,99805.09
2023-05-25T05:27:12.181Z,99800.03
2023-05-25T05:29:39.851Z,99806.25
2023-05-25T05:32:08.144Z,99802.41
2023-05-25T05:34:37.493Z,99805.53
2023-05-25T05:37:05.421Z,99805.97
2023-05-25T05:39:33.090Z,99804.91
2023-05-25T05:42:01.377Z,99806.31
2023-05-25T05:44:29.583Z,99811.25
2023-05-25T05:47:00.814Z,99812.66
2023-05-25T05:49:28.932Z,99821.41
2023-05-25T05:51:57.904Z,99820.72
2023-05-25T05:54:27.708Z,99818.88
2023-05-25T05:56:55.406Z,99817.19
2023-05-25T05:59:23.851Z,99820.50
2023-05-25T06:01:51.521Z,99821.03
2023-05-25T06:04:19.978Z,99823.31
2023-05-25T06:06:47.561Z,99831.47
2023-05-25T06:09:16.686Z,99834.41
2023-05-25T06:11:44.302Z,99831.72
2023-05-25T06:14:12.036Z,99836.06
2023-05-25T06:16:39.802Z,99839.06
2023-05-25T06:19:07.485Z,99843.88
2023-05-25T06:21:35.108Z,99829.84
2023-05-25T06:24:02.810Z,99845.28
2023-05-25T06:26:32.198Z,99839.88
2023-05-25T06:29:00.085Z,99834.22
2023-05-25T06:31:27.714Z,99834.88
2023-05-25T06:33:55.345Z,99841.72
2023-05-25T06:36:22.943Z,99845.53
2023-05-25T06:38:50.568Z,99850.19
2023-05-25T06:41:19.668Z,99843.38
2023-05-25T06:43:48.696Z,99841.75
2023-05-25T06:46:18.311Z,99833.50
2023-05-25T06:48:46.545Z,99841.03
2023-05-25T06:51:14.411Z,99835.63
2023-05-25T06:53:42.113Z,99841.38
2023-05-25T06:56:11.178Z,99845.03
2023-05-25T06:58:38.796Z,99850.31
2023-05-25T07:01:07.906Z,99849.00
2023-05-25T07:03:36.386Z,99846.72
2023-05-25T07:06:04.300Z,99844.59
2023-05-25T07:08:32.039Z,99847.66
2023-05-25T07:10:59.706Z,99845.03
2023-05-25T07:13:27.376Z,99844.53
2023-05-25T07:15:55.028Z,99843.69
2023-05-25T07:18:23.994Z,99838.31
2023-05-25T07:20:52.015Z,99834.38
2023-05-25T07:23:19.638Z,99836.22
2023-05-25T07:25:47.360Z,99837.28
2023-05-25T07:28:15.283Z,99831.47
2023-05-25T07:30:42.944Z,99836.81
2023-05-25T07:33:10.708Z,99830.13
2023-05-25T07:35:39.864Z,99838.47
2023-05-25T07:38:07.559Z,99842.47
2023-05-25T07:40:35.214Z,99825.28
2023-05-25T07:43:02.832Z,99839.25
2023-05-25T07:45:30.635Z,99833.28
2023-05-25T07:47:58.402Z,99831.88
2023-05-25T07:50:26.213Z,99826.94
2023-05-25T07:52:55.222Z,99831.78
2023-05-25T07:55:22.943Z,99841.94
2023-05-25T07:57:51.412Z,99844.88
2023-05-25T08:00:20.102Z,99840.13
2023-05-25T08:02:47.996Z,99837.41
2023-05-25T08:05:16.086Z,99834.75
2023-05-25T08:07:43.756Z,99835.22
2023-05-25T08:10:12.976Z,99845.28
2023-05-25T08:12:48.836Z,99834.59
2023-05-25T08:15:17.645Z,99829.81
2023-05-25T08:17:45.672Z,99820.06
2023-05-25T08:20:13.715Z,99833.53
2023-05-25T08:22:41.445Z,99823.72
2023-05-25T08:25:09.570Z,99823.59
2023-05-25T08:27:38.557Z,99842.53
2023-05-25T08:30:07.484Z,99825.13
2023-05-25T08:32:35.142Z,99821.84
2023-05-25T08:35:03.300Z,99836.63
2023-05-25T08:37:31.381Z,99828.50
2023-05-25T08:40:00.971Z,99832.66
2023-05-25T08:42:28.710Z,99831.47
2023-05-25T08:44:58.893Z,99830.34
2023-05-25T08:47:30.524Z,99835.31
2023-05-25T08:49:58.819Z,99832.91
2023-05-25T08:52:28.185Z,99835.84
2023-05-25T08:54:56.638Z,99842.19
2023-05-25T08:57:28.608Z,99831.22
2023-05-25T09:00:04.614Z,99843.38
2023-05-25T09:02:37.149Z,99846.13
2023-05-25T09:05:05.403Z,99850.16
2023-05-25T09:07:33.335Z,99849.31
2023-05-25T09:10:02.062Z,99840.28
2023-05-25T09:12:30.727Z,99849.31
2023-05-25T09:15:00.026Z,99848.25
2023-05-25T09:17:27.800Z,99846.25
2023-05-25T09:19:56.136Z,99845.34
2023-05-25T09:22:23.929Z,99842.34
2023-05-25T09:24:51.818Z,99844.94
2023-05-25T09:27:21.237Z,99853.00
2023-05-25T09:29:49.796Z,99845.34
2023-05-25T09:32:20.952Z,99845.53
2023-05-25T09:34:48.835Z,99861.44
2023-05-25T09:37:19.011Z,99845.97
2023-05-25T09:39:47.877Z,99849.22
2023-05-25T09:42:15.715Z,99847.31
2023-05-25T09:44:43.699Z,99847.69
2023-05-25T09:47:13.711Z,99843.22
2023-05-25T09:49:44.437Z,99845.78
2023-05-25T09:52:13.367Z,99846.47
2023-05-25T09:54:41.069Z,99849.13
2023-05-25T09:57:08.692Z,99862.94
2023-05-25T09:59:36.643Z,99850.00
2023-05-25T10:02:04.281Z,99842.47
2023-05-25T10:04:32.036Z,99857.31
2023-05-25T10:07:01.789Z,99872.94
2023-05-25T10:09:30.257Z,99849.50
2023-05-25T10:11:58.540Z,99861.31
2023-05-25T10:14:29.475Z,99850.56
2023-05-25T10:16:59.604Z,99852.56
2023-05-25T10:19:32.070Z,99849.84
2023-05-25T10:22:05.508Z,99857.34
2023-05-25T10:24:36.629Z,99849.69
2023-05-25T10:27:14.568Z,99846.06
2023-05-25T10:29:53.527Z,99857.69
2023-05-25T10:32:21.185Z,99840.34
2023-05-25T10:34:49.809Z,99838.69
2023-05-25T10:37:19.624Z,99851.22
2023-05-25T10:39:47.270Z,99836.75
2023-05-25T10:42:14.906Z,99835.97
2023-05-25T10:44:43.017Z,99821.41
2023-05-25T10:47:11.293Z,99837.84
2023-05-25T10:49:53.392Z,99828.19
2023-05-25T10:52:22.553Z,99835.47
2023-05-25T10:54:50.580Z,99825.00
2023-05-25T10:57:22.192Z,99827.03
2023-05-25T10:59:50.701Z,99826.41
2023-05-25T11:02:18.604Z,99827.53
2023-05-25T11:04:49.027Z,99816.22
2023-05-25T11:07:19.486Z,99826.69
2023-05-25T11:09:59.404Z,99828.00
2023-05-25T11:12:27.709Z,99820.63
2023-05-25T11:15:15.128Z,99811.44
2023-05-25T11:18:01.339Z,99823.00
2023-05-25T11:20:30.289Z,99822.13
2023-05-25T11:22:59.004Z,99817.44
2023-05-25T11:25:43.134Z,99816.25
2023-05-25T11:28:12.573Z,99811.75
2023-05-25T11:30:41.345Z,99811.34
2023-05-25T11:33:09.285Z,99811.34
2023-05-25T11:35:38.042Z,99812.72
2023-05-25T11:38:07.585Z,99804.81
2023-05-25T11:40:37.569Z,99817.84
2023-05-25T11:43:09.378Z,99802.78
2023-05-25T11:45:38.061Z,99803.53
2023-05-25T11:48:06.005Z,99803.19
2023-05-25T11:50:34.006Z,99798.69
2023-05-25T11:53:06.054Z,99801.50
2023-05-25T11:55:33.802Z,99798.69
2023-05-25T11:58:01.434Z,99811.41
2023-05-25T12:00:31.506Z,99803.28
2023-05-25T12:02:59.339Z,99790.34
2023-05-25T12:05:27.042Z,99791.13
2023-05-25T12:07:54.666Z,99787.13
2023-05-25T12:10:22.261Z,99792.75
2023-05-25T12:12:51.493Z,99786.28
2023-05-25T12:15:22.360Z,99792.56
2023-05-25T12:17:52.331Z,99795.94
2023-05-25T12:20:20.567Z,99787.78
2023-05-25T12:22:48.508Z,99777.22
2023-05-25T12:25:20.154Z,99773.59
2023-05-25T12:27:47.789Z,99777.56
2023-05-25T12:30:15.689Z,99781.59
2023-05-25T12:33:03.855Z,99777.19
2023-05-25T12:35:46.113Z,99781.00
2023-05-25T12:38:14.484Z,99788.34
2023-05-25T12:40:42.998Z,99775.19
2023-05-25T12:43:12.210Z,99777.44
2023-05-25T12:45:43.533Z,99776.84
2023-05-25T12:48:12.643Z,99782.00
2023-05-25T12:50:41.086Z,99766.06
2023-05-25T12:53:09.043Z,99778.50
2023-05-25T12:55:37.264Z,99769.94
2023-05-25T12:58:06.756Z,99765.81
2023-05-25T13:00:35.870Z,99772.31
2023-05-25T13:03:04.031Z,99765.97
2023-05-25T13:05:35.260Z,99763.50
2023-05-25T13:08:03.837Z,99763.31
2023-05-25T13:10:32.829Z,99758.41
2023-05-25T13:13:01.018Z,99757.56
2023-05-25T13:15:29.256Z,99745.28
2023-05-25T13:17:58.296Z,99751.97
2023-05-25T13:20:27.315Z,99756.25
2023-05-25T13:22:56.596Z,99747.81
2023-05-25T13:25:27.056Z,99756.41
2023-05-25T13:27:55.889Z,99746.25
2023-05-25T13:30:23.616Z,99763.38
2023-05-25T13:32:52.000Z,99746.69
2023-05-25T13:35:34.067Z,99737.19
2023-05-25T13:38:03.128Z,99739.19
2023-05-25T13:40:30.784Z,99737.34
2023-05-25T13:42:58.451Z,99742.47
2023-05-25T13:45:26.099Z,99750.06
2023-05-25T13:47:54.050Z,99752.50
2023-05-25T13:50:21.942Z,99743.47
2023-05-25T13:52:50.067Z,99748.44
2023-05-25T13:55:19.027Z,99738.31
2023-05-25T13:57:47.230Z,99739.19
2023-05-25T14:00:15.468Z,99734.44
2023-05-25T14:02:45.984Z,99737.63
2023-05-25T14:05:13.943Z,99738.22
2023-05-25T14:07:42.147Z,99742.56
2023-05-25T14:10:10.930Z,99735.25
2023-05-25T14:12:40.366Z,99733.06
2023-05-25T14:15:09.677Z,99736.28
2023-05-25T14:17:37.589Z,99730.31
2023-05-25T14:20:06.414Z,99726.66
2023-05-25T14:22:34.230Z,99714.16
2023-05-25T14:25:02.113Z,99726.81
2023-05-25T14:27:30.019Z,99735.69
2023-05-25T14:29:59.289Z,99724.13
2023-05-25T14:32:27.219Z,99722.00
2023-05-25T14:34:55.047Z,99719.75
2023-05-25T14:37:22.918Z,99714.41
2023-05-25T14:39:50.868Z,99721.16
2023-05-25T14:42:18.845Z,99715.63
2023-05-25T14:44:46.778Z,99720.66
2023-05-25T14:47:16.104Z,99709.63
2023-05-25T14:49:43.991Z,99722.59
2023-05-25T14:52:11.874Z,99712.72
2023-05-25T14:54:44.747Z,99716.78
2023-05-25T14:57:12.836Z,99719.25
2023-05-25T14:59:40.722Z,99719.63
2023-05-25T15:02:08.638Z,99715.47
2023-05-25T15:04:37.912Z,99704.72
2023-05-25T15:07:06.226Z,99704.44
2023-05-25T15:09:34.186Z,99710.84
2023-05-25T15:12:02.127Z,99714.78
2023-05-25T15:14:30.200Z,99704.28
2023-05-25T15:16:57.938Z,99701.00
2023-05-25T15:19:25.805Z,99702.16
2023-05-25T15:21:55.220Z,99705.41
2023-05-25T15:24:23.159Z,99706.28
2023-05-25T15:26:51.254Z,99710.91
2023-05-25T15:29:19.313Z,99712.50
2023-05-25T15:31:47.462Z,99707.13
2023-05-25T15:34:15.973Z,99698.84
2023-05-25T15:36:43.976Z,99710.22
2023-05-25T15:39:14.770Z,99704.84
2023-05-25T15:41:42.844Z,99696.03
2023-05-25T15:44:12.809Z,99702.97
2023-05-25T15:46:41.165Z,99698.63
2023-05-25T15:49:11.486Z,99701.91
2023-05-25T15:51:41.747Z,99693.88
2023-05-25T15:54:12.674Z,99695.06
2023-05-25T15:56:43.609Z,99691.47
2023-05-25T15:59:12.490Z,99696.22
2023-05-25T16:01:40.871Z,99684.91
2023-05-25T16:04:09.198Z,99692.69
2023-05-25T16:06:38.455Z,99686.25
2023-05-25T16:09:06.812Z,99687.81
2023-05-25T16:11:34.919Z,99696.34
2023-05-25T16:14:04.196Z,99690.38
2023-05-25T16:16:32.396Z,99690.25
2023-05-25T16:19:00.516Z,99684.16
2023-05-25T16:21:28.516Z,99698.66
2023-05-25T16:23:56.381Z,99696.22
2023-05-25T16:26:24.339Z,99703.13
2023-05-25T16:28:52.288Z,99701.00
2023-05-25T16:31:21.517Z,99700.25
2023-05-25T16:33:49.437Z,99691.84
2023-05-25T16:36:17.480Z,99695.16
2023-05-25T16:38:46.001Z,99693.78
2023-05-25T16:41:13.960Z,99701.22
2023-05-25T16:43:41.964Z,99695.38
2023-05-25T16:46:09.793Z,99687.22
2023-05-25T16:48:39.047Z,99700.66
2023-05-25T16:51:07.497Z,99694.56
2023-05-25T16:53:35.361Z,99691.91
2023-05-25T16:56:02.970Z,99699.69
2023-05-25T16:58:30.673Z,99684.09
2023-05-25T17:00:58.395Z,99693.59
2023-05-25T17:03:26.253Z,99690.69
2023-05-25T17:05:55.392Z,99695.03
2023-05-25T17:08:23.006Z,99695.16
2023-05-25T17:10:50.693Z,99690.56
2023-05-25T17:13:18.409Z,99690.44
2023-05-25T17:15:46.210Z,99688.94
2023-05-25T17:18:14.239Z,99691.28
2023-05-25T17:20:42.040Z,99692.72
2023-05-25T17:23:11.263Z,99683.97
2023-05-25T17:25:39.338Z,99692.63
2023-05-25T17:28:07.331Z,99683.22
2023-05-25T17:30:34.966Z,99690.06
2023-05-25T17:33:02.713Z,99688.47
2023-05-25T17:35:30.509Z,99691.88
2023-05-25T17:37:58.210Z,99692.59
2023-05-25T17:40:27.179Z,99701.50
2023-05-25T17:42:54.817Z,99693.09
2023-05-25T17:45:22.430Z,99695.41
2023-05-25T17:47:50.095Z,99702.59
2023-05-25T17:50:17.943Z,99706.09
2023-05-25T17:52:46.745Z,99699.59
2023-05-25T17:55:14.438Z,99706.94
2023-05-25T17:57:43.481Z,99711.00
2023-05-25T18:00:12.576Z,99700.75
2023-05-25T18:02:40.337Z,99712.50
2023-05-25T18:05:08.532Z,99713.75
2023-05-25T18:07:36.146Z,99678.06
2023-05-25T18:10:03.797Z,99707.09
2023-05-25T18:12:31.415Z,99702.75
2023-05-25T18:15:00.379Z,99702.09
2023-05-25T18:17:28.001Z,99714.22
2023-05-25T18:19:55.745Z,99706.31
2023-05-25T18:22:23.329Z,99710.34
2023-05-25T18:24:50.965Z,99711.53
2023-05-25T18:27:18.654Z,99709.66
2023-05-25T18:29:46.316Z,99710.00
2023-05-25T18:32:15.161Z,99712.69
2023-05-25T18:34:44.889Z,99714.88
2023-05-25T18:37:12.607Z,99705.13
2023-05-25T18:39:40.481Z,99715.94
2023-05-25T18:42:08.630Z,99716.38
2023-05-25T18:44:36.753Z,99709.84
2023-05-25T18:47:04.419Z,99717.47
2023-05-25T18:49:34.585Z,99722.81
2023-05-25T18:52:02.451Z,99719.81
2023-05-25T18:54:30.487Z,99721.69
2023-05-25T18:56:58.335Z,99722.63
2023-05-25T18:59:25.900Z,99716.31
2023-05-25T19:01:55.543Z,99725.72
2023-05-25T19:04:23.284Z,99722.91
2023-05-25T19:06:52.310Z,99727.84
2023-05-25T19:09:19.912Z,99731.00
2023-05-25T19:11:47.532Z,99738.94
2023-05-25T19:14:15.230Z,99734.75
2023-05-25T19:16:42.838Z,99737.97
2023-05-25T19:19:10.520Z,99741.34
2023-05-25T19:21:38.182Z,99737.47
2023-05-25T19:24:09.750Z,99737.19
2023-05-25T19:26:37.791Z,99740.44
2023-05-25T19:29:05.427Z,99743.31
2023-05-25T19:31:33.089Z,99757.41
2023-05-25T19:34:00.977Z,99752.91
2023-05-25T19:36:28.851Z,99760.09
2023-05-25T19:38:56.454Z,99767.72
2023-05-25T19:41:25.414Z,99771.53
2023-05-25T19:43:53.105Z,99779.69
2023-05-25T19:46:20.813Z,99775.81
2023-05-25T19:48:48.707Z,99788.84
2023-05-25T19:51:16.646Z,99788.25
2023-05-25T19:53:46.410Z,99792.91
2023-05-25T19:56:14.769Z,99787.09
2023-05-25T19:58:45.037Z,99792.59
2023-05-25T20:01:12.869Z,99794.63
2023-05-25T20:03:41.586Z,99801.66
2023-05-25T20:06:10.210Z,99800.47
2023-05-25T20:08:38.407Z,99806.72
2023-05-25T20:11:06.468Z,99800.97
2023-05-25T20:13:34.925Z,99805.47
2023-05-25T20:16:04.386Z,99804.59
2023-05-25T20:18:32.284Z,99808.22
2023-05-25T20:21:00.754Z,99810.69
2023-05-25T20:23:28.561Z,99812.06
2023-05-25T20:25:56.477Z,99815.28
2023-05-25T20:28:24.429Z,99808.34
2023-05-25T20:30:53.588Z,99818.09
2023-05-25T20:33:24.198Z,99817.75
2023-05-25T20:35:53.047Z,99815.75
2023-05-25T20:38:20.904Z,99824.66
2023-05-25T20:40:48.748Z,99826.72
2023-05-25T20:43:16.562Z,99816.56
2023-05-25T20:45:44.467Z,99831.16
2023-05-25T20:48:12.295Z,99834.22
2023-05-25T20:50:41.481Z,99831.66
2023-05-25T20:53:09.203Z,99839.47
2023-05-25T20:55:37.200Z,99838.22
2023-05-25T20:58:05.241Z,99839.00
2023-05-25T21:00:32.898Z,99829.81
2023-05-25T21:03:01.249Z,99844.81
2023-05-25T21:05:28.907Z,99842.31
2023-05-25T21:07:57.993Z,99848.09
2023-05-25T21:10:25.690Z,99837.09
2023-05-25T21:12:53.485Z,99849.28
2023-05-25T21:15:21.265Z,99849.19
2023-05-25T21:17:49.400Z,99859.56
2023-05-25T21:20:17.896Z,99859.41
2023-05-25T21:22:45.815Z,99861.31
2023-05-25T21:25:14.828Z,99870.66
2023-05-25T21:27:42.542Z,99867.78
2023-05-25T21:30:11.425Z,99863.63
2023-05-25T21:32:39.277Z,99862.69
2023-05-25T21:35:07.350Z,99868.44
2023-05-25T21:37:35.262Z,99870.69
2023-05-25T21:40:03.453Z,99865.94
2023-05-25T21:42:32.657Z,99875.47
2023-05-25T21:45:00.740Z,99875.75
2023-05-25T21:47:28.473Z,99876.28
2023-05-25T21:49:56.470Z,99877.22
2023-05-25T21:52:24.450Z,99861.81
2023-05-25T21:54:52.478Z,99890.31
2023-05-25T21:57:20.512Z,99898.34
2023-05-25T21:59:49.848Z,99889.69
2023-05-25T22:02:17.927Z,99889.31
2023-05-25T22:04:45.871Z,99886.66
2023-05-25T22:07:13.830Z,99898.91
2023-05-25T22:09:41.689Z,99886.81
2023-05-25T22:12:12.019Z,99889.75
2023-05-25T22:14:39.964Z,99890.47
2023-05-25T22:17:09.581Z,99888.94
2023-05-25T22:19:37.575Z,99887.63
2023-05-25T22:22:06.218Z,99889.06
2023-05-25T22:24:34.226Z,99898.00
2023-05-25T22:27:03.380Z,99897.13
2023-05-25T22:29:34.185Z,99905.09
2023-05-25T22:32:02.272Z,99904.34
2023-05-25T22:34:31.557Z,99909.22
2023-05-25T22:36:59.452Z,99901.13
2023-05-25T22:39:27.357Z,99902.84
2023-05-25T22:41:55.260Z,99909.16
2023-05-25T22:44:23.128Z,99918.91
2023-05-25T22:46:51.474Z,99908.16
2023-05-25T22:49:19.638Z,99912.53
2023-05-25T22:51:49.046Z,99913.66
2023-05-25T22:54:19.355Z,99917.56
2023-05-25T22:56:47.617Z,99914.03
2023-05-25T22:59:15.851Z,99919.50
2023-05-25T23:01:43.971Z,99921.03
2023-05-25T23:04:12.109Z,99920.75
2023-05-25T23:06:40.163Z,99923.06
2023-05-25T23:09:09.520Z,99921.09
2023-05-25T23:11:37.355Z,99915.13
2023-05-25T23:14:07.686Z,99913.84
2023-05-25T23:16:35.988Z,99917.44
2023-05-25T23:19:04.006Z,99914.22
2023-05-25T23:21:33.551Z,99916.56
2023-05-25T23:24:01.618Z,99914.91
2023-05-25T23:26:31.037Z,99920.88
2023-05-25T23:28:59.216Z,99917.59
2023-05-25T23:31:27.330Z,99915.28
2023-05-25T23:33:55.575Z,99925.19
2023-05-25T23:36:26.018Z,99920.81
2023-05-25T23:38:53.700Z,99907.66
2023-05-25T23:41:22.091Z,99925.53
2023-05-25T23:43:51.565Z,99927.38
2023-05-25T23:46:19.560Z,99926.66
2023-05-25T23:48:47.738Z,99925.78
2023-05-25T23:51:16.052Z,99922.75
2023-05-25T23:53:44.103Z,99916.53
2023-05-25T23:56:12.426Z,99904.66
2023-05-25T23:58:40.476Z,99929.09
